Time;durP1;ratioP1;P1;durP2;ratioP2;P2;SDS_P1;SDS_P2;PMS_P1;PMS_P2;Temp;Humidity;BMP_temperature;BMP_pressure;BME280_temperature;BME280_humidity;BME280_pressure;Samples;Min_cycle;Max_cycle;Signal;HPM_P1;HPM_P2
2021/06/23 00:01:45;;;;;;;8.13;4.32;;;;;;;13.45;nan;101824.50;5033252;28;20037;-48
2021/06/23 00:04:10;;;;;;;8.05;3.88;;;;;;;13.46;nan;101823.44;5036952;28;20028;-49
2021/06/23 00:06:36;;;;;;;7.78;4.38;;;;;;;13.38;nan;101815.75;5034376;28;20604;-48
2021/06/23 00:09:04;;;;;;;13.15;5.25;;;;;;;13.40;nan;101815.50;5040176;28;20017;-49
2021/06/23 00:11:45;;;;;;;8.90;5.10;;;;;;;13.41;nan;101812.59;5036621;28;20062;-48
2021/06/23 00:14:12;;;;;;;8.05;4.75;;;;;;;13.47;nan;101813.50;5036636;28;20284;-48
2021/06/23 00:16:38;;;;;;;8.57;5.07;;;;;;;13.48;nan;101807.06;5034746;28;20041;-48
2021/06/23 00:19:04;;;;;;;6.90;4.93;;;;;;;13.47;nan;101811.63;5033320;28;20484;-48
2021/06/23 00:21:30;;;;;;;9.73;5.65;;;;;;;13.44;nan;101822.03;5018859;28;20523;-48
2021/06/23 00:23:55;;;;;;;7.90;5.32;;;;;;;13.40;nan;101815.50;5038398;28;20387;-47
2021/06/23 00:26:21;;;;;;;8.65;5.03;;;;;;;13.22;nan;101814.66;5017433;28;20047;-49
2021/06/23 00:28:46;;;;;;;11.90;5.25;;;;;;;13.07;nan;101805.41;5039379;28;20043;-48
2021/06/23 00:31:12;;;;;;;6.30;4.82;;;;;;;13.10;nan;101805.75;5039343;28;20032;-49
2021/06/23 00:33:38;;;;;;;8.10;4.93;;;;;;;13.11;nan;101806.59;5040115;28;20040;-49
2021/06/23 00:36:04;;;;;;;7.88;5.45;;;;;;;13.12;nan;101798.28;5040147;28;20368;-48
2021/06/23 00:38:29;;;;;;;10.82;6.65;;;;;;;13.08;nan;101796.28;5038069;28;20083;-48
2021/06/23 00:40:56;;;;;;;7.97;5.20;;;;;;;13.12;nan;101802.84;5037293;28;20021;-48
2021/06/23 00:43:22;;;;;;;8.85;5.85;;;;;;;13.10;nan;101803.06;5040635;28;20636;-48
2021/06/23 00:45:48;;;;;;;8.93;5.93;;;;;;;13.13;nan;101799.09;5039150;28;20041;-48
2021/06/23 00:48:21;;;;;;;8.30;5.68;;;;;;;13.02;nan;101804.28;5038154;28;20035;-48
2021/06/23 00:50:48;;;;;;;6.95;5.68;;;;;;;12.99;nan;101799.38;5040302;28;20048;-48
2021/06/23 00:53:14;;;;;;;11.98;5.95;;;;;;;12.95;nan;101800.09;5042878;28;20074;-49
2021/06/23 00:55:40;;;;;;;9.05;5.93;;;;;;;12.89;nan;101809.09;5038349;28;20438;-48
2021/06/23 00:58:06;;;;;;;13.13;6.85;;;;;;;12.86;nan;101815.78;5038781;28;20025;-48
2021/06/23 01:00:33;;;;;;;10.68;6.78;;;;;;;12.84;nan;101823.25;5037667;28;20463;-51
2021/06/23 01:03:01;;;;;;;11.65;7.03;;;;;;;12.77;nan;101837.91;5036959;28;20028;-49
2021/06/23 01:05:27;;;;;;;11.63;6.65;;;;;;;12.75;nan;101838.13;5039602;28;20029;-51
2021/06/23 01:07:53;;;;;;;10.63;6.22;;;;;;;12.74;nan;101836.47;5041403;28;20075;-48
2021/06/23 01:10:18;;;;;;;10.02;6.38;;;;;;;12.70;nan;101832.63;5040328;28;20025;-49
2021/06/23 01:13:05;;;;;;;11.68;6.45;;;;;;;12.65;nan;101835.22;5037019;28;20483;-49
2021/06/23 01:15:33;;;;;;;9.73;6.18;;;;;;;12.62;nan;101833.81;5039129;28;20091;-50
2021/06/23 01:17:59;;;;;;;9.93;6.18;;;;;;;12.60;nan;101841.31;5040885;28;20032;-48
2021/06/23 01:20:24;;;;;;;14.20;6.15;;;;;;;12.52;nan;101846.19;5036470;28;20028;-48
2021/06/23 01:22:50;;;;;;;8.18;5.97;;;;;;;12.48;nan;101845.03;5040086;28;20108;-48
2021/06/23 01:25:16;;;;;;;9.98;6.25;;;;;;;12.50;nan;101851.00;5040612;28;20479;-50
2021/06/23 01:27:44;;;;;;;8.50;6.47;;;;;;;12.47;nan;101859.53;5041647;28;21511;-49
2021/06/23 01:30:11;;;;;;;10.15;6.32;;;;;;;12.44;nan;101854.63;5040414;28;20021;-49
2021/06/23 01:32:37;;;;;;;8.95;5.95;;;;;;;12.40;nan;101854.28;5036745;28;20502;-48
2021/06/23 01:35:03;;;;;;;8.45;6.00;;;;;;;12.33;nan;101851.69;5039472;28;20032;-48
2021/06/23 01:37:29;;;;;;;9.30;6.18;;;;;;;12.26;nan;101856.38;5034072;28;20486;-48
2021/06/23 01:39:55;;;;;;;8.55;6.00;;;;;;;12.12;nan;101862.19;5042969;28;20113;-48
2021/06/23 01:42:21;;;;;;;9.63;6.10;;;;;;;12.11;nan;101853.31;5036169;28;20119;-48
2021/06/23 01:44:46;;;;;;;8.55;5.95;;;;;;;12.11;nan;101856.00;5042622;28;20313;-48
2021/06/23 01:47:11;;;;;;;19.83;6.18;;;;;;;12.06;nan;101862.06;5039391;28;20521;-48
2021/06/23 01:49:37;;;;;;;12.85;6.32;;;;;;;12.00;nan;101865.66;5035999;28;20106;-48
2021/06/23 01:52:03;;;;;;;15.60;6.95;;;;;;;11.97;nan;101866.13;5039110;28;20037;-48
2021/06/23 01:54:29;;;;;;;7.30;5.15;;;;;;;11.99;nan;101869.38;5045366;28;20022;-48
2021/06/23 01:56:54;;;;;;;10.95;6.47;;;;;;;11.92;nan;101879.41;5035312;28;20021;-49
2021/06/23 01:59:20;;;;;;;12.00;6.28;;;;;;;11.90;nan;101889.56;5043063;28;20373;-48
2021/06/23 02:02:03;;;;;;;11.15;6.28;;;;;;;11.85;nan;101893.97;5038045;28;20071;-48
2021/06/23 02:04:52;;;;;;;8.82;6.05;;;;;;;11.82;nan;101889.06;5036044;28;20033;-48
2021/06/23 02:07:42;;;;;;;11.95;6.45;;;;;;;11.70;nan;101875.59;5033035;28;20033;-48
2021/06/23 02:10:35;;;;;;;9.10;6.40;;;;;;;11.68;nan;101873.13;5040230;28;20039;-48
2021/06/23 02:13:38;;;;;;;11.43;6.50;;;;;;;11.62;nan;101870.53;5038205;28;20033;-48
2021/06/23 02:16:10;;;;;;;10.05;5.78;;;;;;;11.59;nan;101874.47;5036464;28;20055;-48
2021/06/23 02:18:37;;;;;;;11.20;6.68;;;;;;;11.61;nan;101893.84;5032737;28;20067;-47
2021/06/23 02:21:05;;;;;;;10.95;7.80;;;;;;;11.55;nan;101913.56;5037874;28;20755;-48
2021/06/23 02:23:35;;;;;;;11.52;7.68;;;;;;;11.62;nan;101929.56;5037876;28;20102;-48
2021/06/23 02:26:01;;;;;;;10.05;6.68;;;;;;;11.60;nan;101926.31;5038633;28;20112;-48
2021/06/23 02:28:29;;;;;;;8.95;6.65;;;;;;;11.56;nan;101917.06;5037355;28;20453;-48
2021/06/23 02:30:54;;;;;;;8.45;5.90;;;;;;;11.52;nan;101911.34;5041368;28;20045;-48
2021/06/23 02:33:20;;;;;;;11.07;6.20;;;;;;;11.47;nan;101909.31;5035696;28;20036;-48
2021/06/23 02:35:48;;;;;;;8.57;5.68;;;;;;;11.42;nan;101901.13;5038679;28;20593;-48
2021/06/23 02:38:13;;;;;;;7.45;5.78;;;;;;;11.39;nan;101885.47;5034744;28;20502;-48
2021/06/23 02:40:39;;;;;;;9.50;5.85;;;;;;;11.38;nan;101883.03;5039850;28;20689;-48
2021/06/23 02:43:06;;;;;;;11.45;6.45;;;;;;;11.34;nan;101884.53;5035691;28;20079;-48
2021/06/23 02:45:31;;;;;;;9.38;6.50;;;;;;;11.31;nan;101899.22;5041871;28;20059;-47
2021/06/23 02:47:57;;;;;;;12.27;5.93;;;;;;;11.28;nan;101912.22;5016633;28;20059;-49
2021/06/23 02:50:23;;;;;;;9.88;6.63;;;;;;;11.30;nan;101923.56;5039003;28;20021;-48
2021/06/23 02:52:49;;;;;;;11.55;6.45;;;;;;;11.31;nan;101925.19;5036643;28;20029;-48
2021/06/23 02:55:21;;;;;;;10.82;6.85;;;;;;;11.32;nan;101937.59;5040576;28;20112;-47
2021/06/23 02:57:48;;;;;;;13.55;8.13;;;;;;;11.22;nan;101930.06;5036664;28;20036;-48
2021/06/23 03:00:14;;;;;;;9.95;6.90;;;;;;;11.00;nan;101926.16;5041007;28;20475;-51
2021/06/23 03:02:40;;;;;;;10.50;7.15;;;;;;;11.08;nan;101932.06;5036462;28;20056;-49
2021/06/23 03:05:06;;;;;;;8.57;5.55;;;;;;;11.20;nan;101942.88;5037274;28;20060;-48
2021/06/23 03:07:32;;;;;;;9.77;6.28;;;;;;;11.27;nan;101940.09;5037349;28;20037;-48
2021/06/23 03:10:06;;;;;;;8.98;6.07;;;;;;;11.33;nan;101932.00;5034270;28;20075;-50
2021/06/23 03:12:32;;;;;;;9.05;5.78;;;;;;;11.39;nan;101946.38;5035782;28;20029;-48
2021/06/23 03:14:57;;;;;;;6.93;5.25;;;;;;;11.41;nan;101947.78;5034774;28;20036;-49
2021/06/23 03:17:23;;;;;;;13.15;6.03;;;;;;;11.46;nan;101949.78;5018045;28;20024;-48
2021/06/23 03:19:48;;;;;;;6.85;5.47;;;;;;;11.52;nan;101942.72;5036041;28;20036;-50
2021/06/23 03:22:14;;;;;;;8.75;5.50;;;;;;;11.59;nan;101949.63;5034050;28;20056;-48
2021/06/23 03:24:39;;;;;;;11.25;5.63;;;;;;;11.64;nan;101944.41;5036266;28;20025;-48
2021/06/23 03:27:06;;;;;;;8.27;6.43;;;;;;;11.70;nan;101948.91;5036168;28;20486;-48
2021/06/23 03:29:33;;;;;;;8.50;5.50;;;;;;;11.74;nan;101942.00;5037702;28;20029;-50
2021/06/23 03:32:01;;;;;;;6.63;5.15;;;;;;;11.84;nan;101938.00;5035496;28;20083;-47
2021/06/23 03:34:27;;;;;;;11.18;5.53;;;;;;;11.93;nan;101940.13;5036025;28;20711;-48
2021/06/23 03:36:53;;;;;;;10.10;5.70;;;;;;;12.07;nan;101943.47;5035435;28;20025;-48
2021/06/23 03:39:18;;;;;;;9.13;5.90;;;;;;;12.20;nan;101948.63;5039345;28;20059;-48
2021/06/23 03:41:44;;;;;;;11.80;5.82;;;;;;;12.36;nan;101949.84;5037197;28;20390;-48
2021/06/23 03:44:10;;;;;;;11.02;5.97;;;;;;;12.51;nan;101946.72;5038779;28;20032;-48
2021/06/23 03:46:35;;;;;;;9.50;5.88;;;;;;;12.67;nan;101956.78;5038435;28;20416;-48
2021/06/23 03:49:01;;;;;;;9.95;5.28;;;;;;;12.85;nan;101943.25;5038315;28;20386;-48
2021/06/23 03:51:27;;;;;;;8.88;4.85;;;;;;;13.04;nan;101937.72;5038056;28;20363;-48
2021/06/23 03:53:52;;;;;;;12.55;5.15;;;;;;;13.18;nan;101945.34;5033052;28;20039;-48
2021/06/23 03:56:18;;;;;;;10.05;4.80;;;;;;;13.33;nan;101939.50;5039729;28;20025;-48
2021/06/23 03:58:44;;;;;;;7.88;4.40;;;;;;;13.40;nan;101945.53;5021158;28;20094;-49
2021/06/23 04:01:10;;;;;;;13.35;4.55;;;;;;;13.51;nan;101950.09;5043799;28;20033;-48
2021/06/23 04:03:36;;;;;;;10.23;4.45;;;;;;;13.67;nan;101955.78;5022104;28;20025;-48
2021/06/23 04:06:01;;;;;;;9.38;4.68;;;;;;;13.75;nan;101950.03;5042538;28;20367;-48
2021/06/23 04:08:27;;;;;;;14.02;5.03;;;;;;;13.82;nan;101948.00;5040375;28;20033;-49
2021/06/23 04:10:53;;;;;;;6.43;4.40;;;;;;;13.80;nan;101950.91;5041553;28;20016;-49
2021/06/23 04:13:18;;;;;;;9.27;5.10;;;;;;;13.75;nan;101960.78;5038428;28;20070;-49
2021/06/23 04:15:44;;;;;;;11.48;5.00;;;;;;;13.74;nan;101972.63;5026504;28;20033;-49
2021/06/23 04:18:09;;;;;;;10.95;5.03;;;;;;;13.70;nan;101977.69;5038233;28;20035;-49
2021/06/23 04:20:35;;;;;;;10.73;4.70;;;;;;;13.71;nan;101978.50;5038739;28;20025;-49
2021/06/23 04:23:01;;;;;;;14.25;5.18;;;;;;;13.72;nan;101982.81;5040983;28;20282;-49
2021/06/23 04:25:26;;;;;;;11.35;4.65;;;;;;;13.71;nan;101987.38;5041101;28;20037;-50
2021/06/23 04:27:52;;;;;;;10.35;5.22;;;;;;;13.67;nan;101993.50;5038407;28;20072;-48
2021/06/23 04:30:17;;;;;;;11.98;5.78;;;;;;;13.39;nan;101986.16;5041145;28;20027;-49
2021/06/23 04:32:43;;;;;;;11.13;4.82;;;;;;;13.26;nan;101988.03;5039899;28;20065;-48
2021/06/23 04:35:10;;;;;;;10.48;5.30;;;;;;;13.40;nan;101994.00;5041389;28;20559;-48
2021/06/23 04:37:38;;;;;;;10.10;4.82;;;;;;;13.33;nan;101990.63;5039096;28;20384;-48
2021/06/23 04:40:06;;;;;;;10.13;5.80;;;;;;;13.36;nan;102000.09;5038114;28;20024;-49
2021/06/23 04:42:31;;;;;;;10.65;5.15;;;;;;;13.32;nan;101999.75;5039395;28;20490;-49
2021/06/23 04:44:57;;;;;;;8.55;5.80;;;;;;;13.42;nan;101997.28;5036899;28;20032;-48
2021/06/23 04:47:23;;;;;;;12.20;5.53;;;;;;;13.40;nan;101999.38;5040352;28;20021;-48
2021/06/23 04:49:49;;;;;;;10.77;5.38;;;;;;;13.34;nan;102011.13;5040761;28;20379;-48
2021/06/23 04:52:14;;;;;;;9.32;5.25;;;;;;;13.17;nan;101999.38;5039822;28;20025;-49
2021/06/23 04:54:40;;;;;;;14.38;5.57;;;;;;;13.35;nan;102006.53;5028481;28;20207;-48
2021/06/23 04:57:05;;;;;;;12.75;4.70;;;;;;;13.45;nan;102006.75;5041278;28;20025;-50
2021/06/23 04:59:31;;;;;;;12.45;5.00;;;;;;;13.63;nan;102003.91;5041227;28;20597;-49
2021/06/23 05:01:57;;;;;;;18.95;4.80;;;;;;;13.75;nan;102007.41;5040635;28;20140;-49
2021/06/23 05:04:23;;;;;;;12.05;5.07;;;;;;;13.84;nan;102011.38;5022423;28;20024;-48
2021/06/23 05:06:48;;;;;;;12.82;4.80;;;;;;;13.93;nan;102017.19;5040638;28;20128;-48
2021/06/23 05:09:14;;;;;;;11.05;5.35;;;;;;;13.99;nan;102018.09;5038617;28;20549;-48
2021/06/23 05:11:40;;;;;;;8.50;5.05;;;;;;;13.95;nan;102012.38;5039108;28;20371;-51
2021/06/23 05:14:06;;;;;;;13.32;5.10;;;;;;;14.07;nan;102015.03;5036049;28;20021;-50
2021/06/23 05:16:35;;;;;;;10.35;4.50;;;;;;;14.25;nan;102024.81;5039981;28;20053;-49
2021/06/23 05:19:01;;;;;;;10.13;4.97;;;;;;;14.49;nan;102012.84;5039882;28;20359;-49
2021/06/23 05:21:26;;;;;;;12.45;4.80;;;;;;;14.71;nan;102018.34;5038616;28;20029;-49
2021/06/23 05:23:52;;;;;;;10.23;4.63;;;;;;;14.93;nan;102021.97;5038223;28;20083;-49
2021/06/23 05:26:18;;;;;;;9.68;4.65;;;;;;;15.17;nan;102022.59;5041110;28;20111;-48
2021/06/23 05:28:43;;;;;;;10.57;5.13;;;;;;;15.36;nan;102023.94;5025931;28;20029;-48
2021/06/23 05:31:09;;;;;;;10.65;4.50;;;;;;;15.53;nan;102023.09;5042360;28;20450;-50
2021/06/23 05:33:34;;;;;;;10.95;4.60;;;;;;;15.75;nan;102015.84;5040729;28;20406;-48
2021/06/23 05:36:00;;;;;;;12.88;5.47;;;;;;;15.97;nan;102027.44;5037587;28;20265;-50
2021/06/23 05:38:25;;;;;;;12.18;4.72;;;;;;;16.18;nan;102035.81;5039306;28;20552;-51
2021/06/23 05:40:51;;;;;;;12.57;4.10;;;;;;;16.35;nan;102033.84;5037497;28;20391;-49
2021/06/23 05:43:16;;;;;;;9.07;4.32;;;;;;;16.57;nan;102045.41;5039719;28;20044;-50
2021/06/23 05:45:42;;;;;;;13.05;3.95;;;;;;;16.78;nan;102037.50;5040859;28;20033;-48
2021/06/23 05:48:08;;;;;;;13.02;3.28;;;;;;;16.85;nan;102036.19;5041150;28;20025;-51
2021/06/23 05:50:34;;;;;;;9.05;3.33;;;;;;;17.07;nan;102048.84;5041820;28;20107;-52
2021/06/23 05:53:00;;;;;;;13.88;4.03;;;;;;;17.27;nan;102051.69;5040220;28;20034;-49
2021/06/23 05:55:25;;;;;;;11.13;3.65;;;;;;;17.27;nan;102053.56;5034425;28;20028;-49
2021/06/23 05:57:55;;;;;;;9.13;2.90;;;;;;;17.56;nan;102046.69;5036696;28;20041;-49
2021/06/23 06:00:23;;;;;;;15.60;3.25;;;;;;;17.80;nan;102047.94;5040335;28;20021;-50
2021/06/23 06:02:48;;;;;;;11.18;3.30;;;;;;;18.05;nan;102043.66;5042519;28;20061;-49
2021/06/23 06:05:15;;;;;;;13.70;3.75;;;;;;;18.46;nan;102043.75;5042818;28;20059;-50
2021/06/23 06:07:41;;;;;;;7.28;3.00;;;;;;;18.84;nan;102032.41;5037499;28;20059;-52
2021/06/23 06:10:08;;;;;;;8.57;3.20;;;;;;;18.95;nan;102028.59;5041062;28;20104;-50
2021/06/23 06:12:34;;;;;;;7.82;3.70;;;;;;;19.37;nan;102032.06;5040167;28;20442;-49
2021/06/23 06:14:59;;;;;;;8.30;3.25;;;;;;;19.40;nan;102034.25;5025211;28;20017;-49
2021/06/23 06:17:25;;;;;;;11.10;3.17;;;;;;;18.86;nan;102041.13;5038197;28;20032;-51
2021/06/23 06:19:50;;;;;;;12.07;3.58;;;;;;;19.21;nan;102039.41;5041771;28;20119;-48
2021/06/23 06:22:16;;;;;;;6.30;2.72;;;;;;;19.52;nan;102032.81;5037062;28;20025;-51
2021/06/23 06:24:41;;;;;;;7.95;3.20;;;;;;;19.84;nan;102042.53;5036713;28;20033;-51
2021/06/23 06:27:07;;;;;;;9.88;3.22;;;;;;;20.15;nan;102046.72;5035200;28;20029;-50
2021/06/23 06:29:32;;;;;;;10.32;2.75;;;;;;;19.89;nan;102045.22;5039636;28;20028;-52
2021/06/23 06:31:58;;;;;;;8.52;2.67;;;;;;;20.09;nan;102049.75;5036520;28;20040;-50
2021/06/23 06:34:23;;;;;;;8.20;2.88;;;;;;;20.31;nan;102052.91;5037516;28;20028;-52
2021/06/23 06:36:49;;;;;;;9.13;3.17;;;;;;;20.62;nan;102053.53;5036149;28;20070;-49
2021/06/23 06:39:14;;;;;;;10.40;2.90;;;;;;;20.43;nan;102058.00;5041847;28;20025;-52
2021/06/23 06:41:40;;;;;;;10.32;2.55;;;;;;;20.56;nan;102060.09;5034498;28;20076;-50
2021/06/23 06:44:06;;;;;;;9.73;2.88;;;;;;;20.60;nan;102055.72;5042651;28;20028;-48
2021/06/23 06:46:31;;;;;;;9.60;2.75;;;;;;;20.55;nan;102055.75;5038837;28;20036;-53
2021/06/23 06:48:57;;;;;;;8.07;2.42;;;;;;;20.73;nan;102057.81;5039002;28;20057;-49
2021/06/23 06:51:22;;;;;;;10.45;2.80;;;;;;;20.54;nan;102053.31;5041700;28;20036;-52
2021/06/23 06:53:48;;;;;;;14.77;2.78;;;;;;;20.95;nan;102051.88;5036689;28;20021;-52
2021/06/23 06:56:13;;;;;;;8.13;2.13;;;;;;;20.66;nan;102046.44;5040164;28;20056;-51
2021/06/23 06:58:39;;;;;;;4.57;2.00;;;;;;;20.60;nan;102053.00;5036448;28;20055;-53
2021/06/23 07:01:04;;;;;;;7.75;2.15;;;;;;;21.19;nan;102048.41;5042511;28;20050;-52
2021/06/23 07:03:31;;;;;;;5.72;2.03;;;;;;;21.20;nan;102050.84;5040691;28;20053;-52
2021/06/23 07:05:56;;;;;;;10.45;1.88;;;;;;;21.77;nan;102051.88;5042399;28;20545;-50
2021/06/23 07:08:22;;;;;;;6.97;2.08;;;;;;;22.14;nan;102042.16;5037675;28;20025;-52
2021/06/23 07:10:47;;;;;;;8.80;2.17;;;;;;;22.06;nan;102040.06;5038736;28;20025;-49
2021/06/23 07:13:13;;;;;;;6.55;2.05;;;;;;;21.03;nan;102042.31;5036396;28;20554;-50
2021/06/23 07:15:39;;;;;;;7.18;2.30;;;;;;;21.83;nan;102039.78;5036738;28;20033;-52
2021/06/23 07:18:04;;;;;;;7.38;2.03;;;;;;;22.23;nan;102035.72;5040703;28;20060;-50
2021/06/23 07:20:30;;;;;;;9.50;2.38;;;;;;;22.36;nan;102030.63;5040434;28;20434;-52
2021/06/23 07:22:56;;;;;;;9.48;2.47;;;;;;;22.57;nan;102030.00;5039057;28;20028;-49
2021/06/23 07:25:23;;;;;;;9.75;2.55;;;;;;;22.84;nan;102029.31;5017676;28;20053;-50
2021/06/23 07:27:48;;;;;;;7.78;2.22;;;;;;;22.47;nan;102043.84;5015744;28;20379;-51
2021/06/23 07:30:15;;;;;;;4.43;2.22;;;;;;;22.96;nan;102050.69;5015778;28;20049;-52
2021/06/23 07:32:50;;;;;;;5.18;2.17;;;;;;;23.35;nan;102057.69;5016026;28;20062;-50
2021/06/23 07:38:00;;;;;;;7.00;2.00;;;;;;;23.50;nan;102055.44;5026130;28;20090;-52
2021/06/23 07:40:43;;;;;;;7.97;2.10;;;;;;;23.63;nan;102050.31;5021203;28;20091;-51
2021/06/23 07:43:11;;;;;;;11.27;3.00;;;;;;;23.75;nan;102051.41;5025373;28;20249;-49
2021/06/23 07:45:41;;;;;;;5.05;1.95;;;;;;;23.87;nan;102052.81;5018643;28;20033;-51
2021/06/23 07:48:07;;;;;;;9.45;2.38;;;;;;;23.99;nan;102055.84;5027248;28;20501;-50
2021/06/23 07:50:40;;;;;;;8.30;2.30;;;;;;;24.08;nan;102060.28;5021749;28;20036;-51
2021/06/23 07:55:56;;;;;;;6.07;2.38;;;;;;;24.04;nan;102037.34;5004308;28;20045;-51
2021/06/23 08:11:51;;;;;;;5.80;2.25;;;;;;;24.05;nan;102027.22;5021992;28;20037;-49
2021/06/23 08:14:17;;;;;;;6.90;2.83;;;;;;;22.69;nan;102039.66;5021793;28;20031;-52
2021/06/23 08:16:44;;;;;;;6.63;2.72;;;;;;;22.60;nan;102034.88;5018385;28;20108;-52
2021/06/23 08:19:09;;;;;;;7.80;2.22;;;;;;;22.20;nan;102033.56;5024430;28;20378;-49
2021/06/23 08:21:35;;;;;;;7.22;3.00;;;;;;;21.37;nan;102037.63;5021960;28;20021;-50
2021/06/23 08:24:00;;;;;;;6.90;2.50;;;;;;;21.91;nan;102030.97;5023706;28;20040;-51
2021/06/23 08:26:26;;;;;;;7.57;2.70;;;;;;;22.65;nan;102034.00;5023133;28;20131;-50
2021/06/23 08:28:52;;;;;;;11.00;2.60;;;;;;;22.50;nan;102032.31;5018467;28;20033;-49
2021/06/23 08:31:18;;;;;;;5.72;2.35;;;;;;;22.03;nan;102039.50;5018672;28;20029;-50
2021/06/23 08:33:43;;;;;;;9.27;2.47;;;;;;;21.38;nan;102050.16;5020852;28;20039;-52
2021/06/23 08:36:09;;;;;;;7.25;2.58;;;;;;;21.79;nan;102043.41;5017589;28;20084;-50
2021/06/23 08:38:35;;;;;;;13.65;3.20;;;;;;;22.48;nan;102042.72;5013063;28;20103;-49
2021/06/23 08:41:02;;;;;;;9.50;2.70;;;;;;;22.43;nan;102034.59;5011636;28;20096;-52
2021/06/23 08:43:28;;;;;;;6.38;2.42;;;;;;;22.85;nan;102041.88;5017966;28;20116;-51
2021/06/23 08:45:54;;;;;;;9.23;3.03;;;;;;;23.30;nan;102033.13;5015371;28;20051;-52
2021/06/23 08:48:19;;;;;;;6.97;2.25;;;;;;;24.12;nan;102035.84;5015456;28;20029;-51
2021/06/23 08:50:45;;;;;;;8.27;2.50;;;;;;;23.71;nan;102036.72;5013425;28;20026;-49
2021/06/23 08:53:11;;;;;;;6.35;2.05;;;;;;;23.67;nan;102041.16;5016224;28;20026;-53
2021/06/23 08:55:37;;;;;;;9.23;2.05;;;;;;;23.92;nan;102049.97;5012699;28;20038;-51
2021/06/23 08:58:04;;;;;;;5.13;2.00;;;;;;;22.50;nan;102054.16;5019425;28;20037;-52
2021/06/23 09:00:30;;;;;;;4.88;1.90;;;;;;;22.87;nan;102056.06;5016502;28;20029;-51
2021/06/23 09:03:06;;;;;;;7.28;2.70;;;;;;;21.71;nan;102058.47;5017213;28;20035;-50
2021/06/23 09:05:57;;;;;;;7.90;2.60;;;;;;;22.06;nan;102059.97;5016581;28;20057;-52
2021/06/23 09:08:37;;;;;;;5.57;2.17;;;;;;;22.87;nan;102063.44;5014484;28;20032;-53
2021/06/23 09:11:23;;;;;;;4.88;2.10;;;;;;;22.84;nan;102059.38;5015129;28;20124;-51
2021/06/23 09:13:48;;;;;;;6.28;2.70;;;;;;;23.51;nan;102043.38;5015783;28;20010;-53
2021/06/23 09:16:14;;;;;;;8.85;2.40;;;;;;;23.09;nan;102051.84;5030987;28;20029;-49
2021/06/23 09:18:42;;;;;;;7.68;2.75;;;;;;;22.69;nan;102050.59;5013583;28;20030;-51
2021/06/23 09:21:17;;;;;;;8.90;2.55;;;;;;;23.20;nan;102058.75;5014893;28;20020;-50
2021/06/23 09:23:52;;;;;;;13.18;3.10;;;;;;;23.79;nan;102052.41;5015877;28;20034;-49
2021/06/23 09:26:26;;;;;;;7.40;2.53;;;;;;;23.69;nan;102058.09;5014294;28;20033;-52
2021/06/23 09:29:09;;;;;;;7.05;2.22;;;;;;;23.39;nan;102062.22;5018676;28;20057;-50
2021/06/23 09:31:55;;;;;;;8.93;2.63;;;;;;;23.51;nan;102061.72;5014925;28;20065;-52
2021/06/23 09:34:26;;;;;;;8.10;2.78;;;;;;;22.58;nan;102061.66;5018557;28;20034;-51
2021/06/23 09:36:53;;;;;;;5.32;2.40;;;;;;;23.25;nan;102058.66;5016547;28;20061;-51
2021/06/23 09:39:20;;;;;;;9.05;2.65;;;;;;;23.99;nan;102051.16;5015745;28;20515;-50
2021/06/23 09:41:47;;;;;;;8.60;2.55;;;;;;;24.29;nan;102038.75;5016923;28;20128;-52
2021/06/23 09:44:13;;;;;;;11.63;2.30;;;;;;;24.63;nan;102043.69;5019432;28;20021;-52
2021/06/23 09:46:45;;;;;;;7.68;2.53;;;;;;;24.89;nan;102045.78;5018476;28;20033;-53
2021/06/23 09:49:24;;;;;;;6.18;2.50;;;;;;;24.97;nan;102048.59;5019382;28;20623;-50
2021/06/23 09:51:54;;;;;;;9.13;2.30;;;;;;;25.30;nan;102064.75;5013115;28;20560;-49
2021/06/23 09:54:22;;;;;;;4.90;2.20;;;;;;;25.66;nan;102059.06;5016389;28;20479;-52
2021/06/23 09:56:48;;;;;;;7.20;2.80;;;;;;;25.90;nan;102053.19;5018596;28;20022;-50
2021/06/23 09:59:29;;;;;;;7.15;2.58;;;;;;;24.52;nan;102056.03;5017871;28;20017;-52
2021/06/23 10:01:55;;;;;;;9.50;2.97;;;;;;;24.53;nan;102054.09;5021637;28;20033;-49
2021/06/23 10:04:20;;;;;;;6.18;2.60;;;;;;;25.38;nan;102063.19;5014402;28;20089;-53
2021/06/23 10:06:46;;;;;;;6.60;2.70;;;;;;;25.03;nan;102064.94;5014154;28;20030;-49
2021/06/23 10:09:22;;;;;;;7.68;2.47;;;;;;;26.24;nan;102068.09;5017909;28;20468;-52
2021/06/23 10:11:52;;;;;;;8.30;2.72;;;;;;;26.23;nan;102075.53;5017266;28;20025;-52
2021/06/23 10:14:18;;;;;;;11.40;2.70;;;;;;;26.69;nan;102058.41;5012142;28;20060;-50
2021/06/23 10:16:47;;;;;;;5.10;2.30;;;;;;;25.29;nan;102071.34;5010496;28;20033;-51
2021/06/23 10:19:14;;;;;;;6.00;2.78;;;;;;;26.45;nan;102058.13;5007097;28;20025;-51
2021/06/23 10:21:40;;;;;;;6.32;2.47;;;;;;;26.99;nan;102066.78;5007972;28;20021;-51
2021/06/23 10:24:08;;;;;;;7.63;2.38;;;;;;;27.12;nan;102063.06;5011720;28;20053;-50
2021/06/23 10:26:36;;;;;;;5.65;2.33;;;;;;;27.24;nan;102056.84;5009051;28;20396;-51
2021/06/23 10:29:04;;;;;;;7.65;2.17;;;;;;;26.54;nan;102049.84;5009771;28;21009;-50
2021/06/23 10:31:30;;;;;;;5.63;2.17;;;;;;;26.08;nan;102063.09;5009141;28;20029;-54
2021/06/23 10:33:56;;;;;;;8.20;2.33;;;;;;;26.55;nan;102057.78;5008786;28;20476;-52
2021/06/23 10:36:25;;;;;;;7.10;2.72;;;;;;;25.23;nan;102056.16;4998167;28;20102;-51
2021/06/23 10:38:53;;;;;;;5.47;2.20;;;;;;;25.29;nan;102052.97;5010688;28;20041;-52
2021/06/23 10:41:19;;;;;;;4.45;2.45;;;;;;;23.86;nan;102056.66;5012083;28;20028;-53
2021/06/23 10:44:24;;;;;;;7.53;2.40;;;;;;;24.88;nan;102055.13;5010491;28;20029;-51
2021/06/23 10:46:55;;;;;;;5.68;2.00;;;;;;;25.48;nan;102052.72;5013579;28;20034;-52
2021/06/23 10:49:50;;;;;;;6.57;2.53;;;;;;;24.65;nan;102048.88;5014231;28;20279;-52
2021/06/23 10:52:21;;;;;;;6.45;2.78;;;;;;;24.69;nan;102056.16;5013829;28;20419;-49
2021/06/23 10:54:48;;;;;;;8.48;2.25;;;;;;;25.32;nan;102059.78;4990366;28;20036;-51
2021/06/23 10:57:25;;;;;;;5.10;2.40;;;;;;;25.44;nan;102067.38;5012105;28;20021;-50
2021/06/23 10:59:52;;;;;;;4.70;2.50;;;;;;;24.84;nan;102063.19;5012281;28;20017;-49
2021/06/23 11:02:40;;;;;;;5.40;2.03;;;;;;;24.84;nan;102060.44;5013252;28;20026;-50
2021/06/23 11:05:10;;;;;;;5.90;2.30;;;;;;;24.39;nan;102052.19;5012571;28;20076;-53
2021/06/23 11:07:43;;;;;;;8.18;2.42;;;;;;;24.89;nan;102045.78;5011152;28;20076;-53
2021/06/23 11:10:15;;;;;;;5.53;2.20;;;;;;;24.55;nan;102051.84;5016031;28;20049;-50
2021/06/23 11:12:45;;;;;;;5.93;2.55;;;;;;;24.51;nan;102050.84;5012640;28;20025;-53
2021/06/23 11:15:15;;;;;;;3.72;2.20;;;;;;;24.78;nan;102058.16;5012984;28;20098;-52
2021/06/23 11:17:41;;;;;;;8.02;2.70;;;;;;;24.34;nan;102057.81;5013008;28;20025;-50
2021/06/23 11:20:19;;;;;;;4.05;2.45;;;;;;;24.03;nan;102045.88;5011575;28;20029;-49
2021/06/23 11:22:56;;;;;;;4.50;2.58;;;;;;;23.50;nan;102054.63;4996988;28;20149;-52
2021/06/23 11:25:27;;;;;;;5.72;2.97;;;;;;;24.01;nan;102050.88;5012396;28;20079;-49
2021/06/23 11:28:08;;;;;;;5.75;2.42;;;;;;;24.88;nan;102055.13;5012041;28;20148;-49
2021/06/23 11:30:42;;;;;;;6.05;2.88;;;;;;;25.20;nan;102059.53;5009408;28;20034;-49
2021/06/23 11:33:26;;;;;;;8.10;2.83;;;;;;;24.93;nan;102055.00;5014460;28;20030;-50
2021/06/23 11:35:55;;;;;;;7.82;2.78;;;;;;;24.87;nan;102057.06;5011842;28;20101;-49
2021/06/23 11:38:21;;;;;;;6.25;2.90;;;;;;;25.34;nan;102059.47;5012975;28;20243;-50
2021/06/23 11:40:47;;;;;;;5.57;2.60;;;;;;;24.25;nan;102058.84;5011182;28;20158;-50
2021/06/23 11:43:12;;;;;;;5.32;2.78;;;;;;;24.51;nan;102064.56;5016957;28;20028;-48
2021/06/23 11:45:38;;;;;;;5.13;2.72;;;;;;;24.77;nan;102065.53;5013655;28;20412;-52
2021/06/23 11:48:04;;;;;;;5.38;2.58;;;;;;;23.98;nan;102065.16;5015964;28;20431;-53
2021/06/23 11:50:29;;;;;;;7.05;2.47;;;;;;;23.97;nan;102067.09;5011212;28;20030;-52
2021/06/23 11:52:55;;;;;;;5.30;2.30;;;;;;;24.11;nan;102059.69;5008216;28;20033;-52
2021/06/23 11:55:24;;;;;;;4.43;2.50;;;;;;;24.02;nan;102066.16;4995343;28;20108;-52
2021/06/23 11:57:52;;;;;;;7.85;2.55;;;;;;;24.61;nan;102056.09;5012383;28;20120;-49
2021/06/23 12:00:18;;;;;;;9.82;2.55;;;;;;;24.96;nan;102066.16;5011806;28;20030;-49
2021/06/23 12:02:43;;;;;;;6.57;2.15;;;;;;;24.77;nan;102065.53;5008862;28;20105;-52